sensor_id;sensor_type;location;lat;lon;timestamp;P1;durP1;ratioP1;P2;durP2;ratioP2
4992;SDS011;2514;53.524;10.166;2022-10-16T00:01:34;1.80;;;1.70;;
4992;SDS011;2514;53.524;10.166;2022-10-16T00:04:02;2.63;;;1.92;;
4992;SDS011;2514;53.524;10.166;2022-10-16T00:06:30;3.95;;;3.08;;
4992;SDS011;2514;53.524;10.166;2022-10-16T00:08:57;4.53;;;2.50;;
4992;SDS011;2514;53.524;10.166;2022-10-16T00:11:26;3.42;;;1.75;;
4992;SDS011;2514;53.524;10.166;2022-10-16T00:13:57;3.92;;;3.22;;
4992;SDS011;2514;53.524;10.166;2022-10-16T00:16:25;3.27;;;2.80;;
4992;SDS011;2514;53.524;10.166;2022-10-16T00:18:53;1.20;;;0.90;;
4992;SDS011;2514;53.524;10.166;2022-10-16T00:21:21;4.07;;;2.53;;
4992;SDS011;2514;53.524;10.166;2022-10-16T00:23:51;1.90;;;1.40;;
4992;SDS011;2514;53.524;10.166;2022-10-16T00:26:19;13.90;;;2.20;;
4992;SDS011;2514;53.524;10.166;2022-10-16T00:28:46;2.38;;;1.80;;
4992;SDS011;2514;53.524;10.166;2022-10-16T00:31:16;2.90;;;2.22;;
4992;SDS011;2514;53.524;10.166;2022-10-16T00:33:45;6.07;;;3.88;;
4992;SDS011;2514;53.524;10.166;2022-10-16T00:36:13;6.20;;;3.60;;
4992;SDS011;2514;53.524;10.166;2022-10-16T00:38:42;2.75;;;2.45;;
4992;SDS011;2514;53.524;10.166;2022-10-16T00:41:11;3.30;;;2.60;;
4992;SDS011;2514;53.524;10.166;2022-10-16T00:43:41;1.70;;;1.60;;
4992;SDS011;2514;53.524;10.166;2022-10-16T00:46:12;4.35;;;3.95;;
4992;SDS011;2514;53.524;10.166;2022-10-16T00:48:45;7.38;;;2.47;;
4992;SDS011;2514;53.524;10.166;2022-10-16T00:51:17;8.30;;;2.60;;
4992;SDS011;2514;53.524;10.166;2022-10-16T00:53:48;9.07;;;3.25;;
4992;SDS011;2514;53.524;10.166;2022-10-16T00:56:16;3.90;;;3.03;;
4992;SDS011;2514;53.524;10.166;2022-10-16T00:58:44;3.03;;;2.00;;
4992;SDS011;2514;53.524;10.166;2022-10-16T01:01:11;4.20;;;2.00;;
4992;SDS011;2514;53.524;10.166;2022-10-16T01:03:39;3.85;;;2.20;;
4992;SDS011;2514;53.524;10.166;2022-10-16T01:06:12;2.97;;;2.45;;
4992;SDS011;2514;53.524;10.166;2022-10-16T01:08:51;2.97;;;2.72;;
4992;SDS011;2514;53.524;10.166;2022-10-16T01:11:32;6.55;;;2.63;;
4992;SDS011;2514;53.524;10.166;2022-10-16T01:14:06;2.73;;;2.53;;
4992;SDS011;2514;53.524;10.166;2022-10-16T01:16:43;2.53;;;2.25;;
4992;SDS011;2514;53.524;10.166;2022-10-16T01:19:20;3.60;;;2.35;;
4992;SDS011;2514;53.524;10.166;2022-10-16T01:22:19;2.92;;;1.98;;
4992;SDS011;2514;53.524;10.166;2022-10-16T01:24:51;5.37;;;3.00;;
4992;SDS011;2514;53.524;10.166;2022-10-16T01:27:23;2.30;;;1.70;;
4992;SDS011;2514;53.524;10.166;2022-10-16T01:29:53;2.20;;;2.00;;
4992;SDS011;2514;53.524;10.166;2022-10-16T01:32:28;1.75;;;1.65;;
4992;SDS011;2514;53.524;10.166;2022-10-16T01:35:02;1.15;;;1.05;;
4992;SDS011;2514;53.524;10.166;2022-10-16T01:37:35;2.78;;;1.92;;
4992;SDS011;2514;53.524;10.166;2022-10-16T01:40:08;1.92;;;1.73;;
4992;SDS011;2514;53.524;10.166;2022-10-16T01:42:39;3.10;;;2.30;;
4992;SDS011;2514;53.524;10.166;2022-10-16T01:45:09;2.80;;;1.50;;
4992;SDS011;2514;53.524;10.166;2022-10-16T01:47:40;1.30;;;0.60;;
4992;SDS011;2514;53.524;10.166;2022-10-16T01:50:09;2.08;;;1.88;;
4992;SDS011;2514;53.524;10.166;2022-10-16T01:52:37;1.40;;;1.23;;
4992;SDS011;2514;53.524;10.166;2022-10-16T01:55:09;1.00;;;0.90;;
4992;SDS011;2514;53.524;10.166;2022-10-16T01:57:45;2.40;;;0.80;;
4992;SDS011;2514;53.524;10.166;2022-10-16T02:00:16;2.17;;;1.97;;
4992;SDS011;2514;53.524;10.166;2022-10-16T02:02:48;1.60;;;1.50;;
4992;SDS011;2514;53.524;10.166;2022-10-16T02:05:19;2.20;;;1.42;;
4992;SDS011;2514;53.524;10.166;2022-10-16T02:07:50;0.80;;;0.52;;
4992;SDS011;2514;53.524;10.166;2022-10-16T02:10:17;1.97;;;1.13;;
4992;SDS011;2514;53.524;10.166;2022-10-16T02:12:47;2.55;;;1.67;;
4992;SDS011;2514;53.524;10.166;2022-10-16T02:15:21;2.00;;;1.77;;
4992;SDS011;2514;53.524;10.166;2022-10-16T02:17:48;1.00;;;0.80;;
4992;SDS011;2514;53.524;10.166;2022-10-16T02:20:15;1.40;;;0.88;;
4992;SDS011;2514;53.524;10.166;2022-10-16T02:22:48;1.60;;;1.30;;
4992;SDS011;2514;53.524;10.166;2022-10-16T02:25:17;1.40;;;1.10;;
4992;SDS011;2514;53.524;10.166;2022-10-16T02:27:53;6.40;;;1.05;;
4992;SDS011;2514;53.524;10.166;2022-10-16T02:30:25;1.50;;;0.90;;
4992;SDS011;2514;53.524;10.166;2022-10-16T02:32:55;2.70;;;0.65;;
4992;SDS011;2514;53.524;10.166;2022-10-16T02:35:24;1.63;;;1.52;;
4992;SDS011;2514;53.524;10.166;2022-10-16T02:37:52;0.98;;;0.63;;
4992;SDS011;2514;53.524;10.166;2022-10-16T02:40:20;0.85;;;0.60;;
4992;SDS011;2514;53.524;10.166;2022-10-16T02:42:49;1.10;;;1.00;;
4992;SDS011;2514;53.524;10.166;2022-10-16T02:45:20;1.23;;;0.70;;
4992;SDS011;2514;53.524;10.166;2022-10-16T02:47:47;0.90;;;0.60;;
4992;SDS011;2514;53.524;10.166;2022-10-16T02:50:15;0.90;;;0.70;;
4992;SDS011;2514;53.524;10.166;2022-10-16T02:52:43;1.13;;;1.02;;
4992;SDS011;2514;53.524;10.166;2022-10-16T02:55:10;2.10;;;0.90;;
4992;SDS011;2514;53.524;10.166;2022-10-16T02:57:37;1.00;;;0.70;;
4992;SDS011;2514;53.524;10.166;2022-10-16T03:00:07;1.80;;;1.50;;
4992;SDS011;2514;53.524;10.166;2022-10-16T03:02:38;0.80;;;0.50;;
4992;SDS011;2514;53.524;10.166;2022-10-16T03:05:06;1.10;;;1.00;;
4992;SDS011;2514;53.524;10.166;2022-10-16T03:07:34;1.00;;;0.90;;
4992;SDS011;2514;53.524;10.166;2022-10-16T03:10:01;0.98;;;0.68;;
4992;SDS011;2514;53.524;10.166;2022-10-16T03:12:28;1.00;;;0.80;;
4992;SDS011;2514;53.524;10.166;2022-10-16T03:14:56;1.50;;;0.90;;
4992;SDS011;2514;53.524;10.166;2022-10-16T03:17:24;1.60;;;1.00;;
4992;SDS011;2514;53.524;10.166;2022-10-16T03:19:52;1.10;;;0.75;;
4992;SDS011;2514;53.524;10.166;2022-10-16T03:22:19;8.73;;;0.93;;
4992;SDS011;2514;53.524;10.166;2022-10-16T03:24:46;0.80;;;0.50;;
4992;SDS011;2514;53.524;10.166;2022-10-16T03:27:13;0.90;;;0.70;;
4992;SDS011;2514;53.524;10.166;2022-10-16T03:29:40;1.30;;;0.77;;
4992;SDS011;2514;53.524;10.166;2022-10-16T03:32:07;1.00;;;0.70;;
4992;SDS011;2514;53.524;10.166;2022-10-16T03:34:35;0.93;;;0.77;;
4992;SDS011;2514;53.524;10.166;2022-10-16T03:37:02;0.90;;;0.68;;
4992;SDS011;2514;53.524;10.166;2022-10-16T03:39:29;2.10;;;1.60;;
4992;SDS011;2514;53.524;10.166;2022-10-16T03:41:56;1.40;;;1.30;;
4992;SDS011;2514;53.524;10.166;2022-10-16T03:44:23;1.10;;;0.77;;
4992;SDS011;2514;53.524;10.166;2022-10-16T03:46:50;0.90;;;0.80;;
4992;SDS011;2514;53.524;10.166;2022-10-16T03:49:17;0.90;;;0.70;;
4992;SDS011;2514;53.524;10.166;2022-10-16T03:51:46;3.00;;;0.70;;
4992;SDS011;2514;53.524;10.166;2022-10-16T03:54:13;0.80;;;0.50;;
4992;SDS011;2514;53.524;10.166;2022-10-16T03:56:40;0.80;;;0.50;;
4992;SDS011;2514;53.524;10.166;2022-10-16T03:59:07;1.40;;;0.70;;
4992;SDS011;2514;53.524;10.166;2022-10-16T04:01:34;0.90;;;0.60;;
4992;SDS011;2514;53.524;10.166;2022-10-16T04:04:01;0.80;;;0.53;;
4992;SDS011;2514;53.524;10.166;2022-10-16T04:06:28;0.90;;;0.80;;
4992;SDS011;2514;53.524;10.166;2022-10-16T04:08:56;1.30;;;1.00;;
4992;SDS011;2514;53.524;10.166;2022-10-16T04:11:23;5.97;;;1.55;;
4992;SDS011;2514;53.524;10.166;2022-10-16T04:13:50;2.50;;;0.60;;
4992;SDS011;2514;53.524;10.166;2022-10-16T04:16:17;1.10;;;0.90;;
4992;SDS011;2514;53.524;10.166;2022-10-16T04:18:44;1.00;;;0.80;;
4992;SDS011;2514;53.524;10.166;2022-10-16T04:21:11;4.10;;;1.40;;
4992;SDS011;2514;53.524;10.166;2022-10-16T04:23:38;0.80;;;0.50;;
4992;SDS011;2514;53.524;10.166;2022-10-16T04:26:06;1.30;;;0.73;;
4992;SDS011;2514;53.524;10.166;2022-10-16T04:28:35;3.80;;;1.17;;
4992;SDS011;2514;53.524;10.166;2022-10-16T04:31:03;1.30;;;1.00;;
4992;SDS011;2514;53.524;10.166;2022-10-16T04:33:30;1.88;;;1.05;;
4992;SDS011;2514;53.524;10.166;2022-10-16T04:35:57;4.13;;;1.50;;
4992;SDS011;2514;53.524;10.166;2022-10-16T04:38:25;1.10;;;0.70;;
4992;SDS011;2514;53.524;10.166;2022-10-16T04:40:53;1.40;;;0.90;;
4992;SDS011;2514;53.524;10.166;2022-10-16T04:43:21;13.10;;;1.40;;
4992;SDS011;2514;53.524;10.166;2022-10-16T04:45:48;0.80;;;0.52;;
4992;SDS011;2514;53.524;10.166;2022-10-16T04:48:16;1.00;;;0.70;;
4992;SDS011;2514;53.524;10.166;2022-10-16T04:50:43;0.90;;;0.70;;
4992;SDS011;2514;53.524;10.166;2022-10-16T04:53:11;3.00;;;0.70;;
4992;SDS011;2514;53.524;10.166;2022-10-16T04:55:38;4.70;;;1.10;;
4992;SDS011;2514;53.524;10.166;2022-10-16T04:58:05;1.30;;;1.00;;
4992;SDS011;2514;53.524;10.166;2022-10-16T05:00:33;0.90;;;0.80;;
4992;SDS011;2514;53.524;10.166;2022-10-16T05:03:01;1.60;;;0.90;;
4992;SDS011;2514;53.524;10.166;2022-10-16T05:05:31;1.40;;;1.30;;
4992;SDS011;2514;53.524;10.166;2022-10-16T05:07:58;0.90;;;0.70;;
4992;SDS011;2514;53.524;10.166;2022-10-16T05:10:25;0.80;;;0.40;;
4992;SDS011;2514;53.524;10.166;2022-10-16T05:12:52;2.40;;;1.60;;
4992;SDS011;2514;53.524;10.166;2022-10-16T05:15:19;1.10;;;0.93;;
4992;SDS011;2514;53.524;10.166;2022-10-16T05:17:47;0.80;;;0.50;;
4992;SDS011;2514;53.524;10.166;2022-10-16T05:20:18;5.32;;;1.38;;
4992;SDS011;2514;53.524;10.166;2022-10-16T05:22:45;1.00;;;0.70;;
4992;SDS011;2514;53.524;10.166;2022-10-16T05:25:12;6.53;;;0.95;;
4992;SDS011;2514;53.524;10.166;2022-10-16T05:27:39;0.80;;;0.40;;
4992;SDS011;2514;53.524;10.166;2022-10-16T05:30:07;0.80;;;0.50;;
4992;SDS011;2514;53.524;10.166;2022-10-16T05:32:35;0.80;;;0.40;;
4992;SDS011;2514;53.524;10.166;2022-10-16T05:35:04;2.00;;;1.30;;
4992;SDS011;2514;53.524;10.166;2022-10-16T05:37:31;0.90;;;0.80;;
4992;SDS011;2514;53.524;10.166;2022-10-16T05:39:58;0.95;;;0.63;;
4992;SDS011;2514;53.524;10.166;2022-10-16T05:42:25;2.70;;;1.23;;
4992;SDS011;2514;53.524;10.166;2022-10-16T05:44:53;1.23;;;1.13;;
4992;SDS011;2514;53.524;10.166;2022-10-16T05:47:20;1.10;;;0.80;;
4992;SDS011;2514;53.524;10.166;2022-10-16T05:49:47;2.30;;;0.70;;
4992;SDS011;2514;53.524;10.166;2022-10-16T05:52:15;1.10;;;0.77;;
4992;SDS011;2514;53.524;10.166;2022-10-16T05:54:42;1.33;;;0.80;;
4992;SDS011;2514;53.524;10.166;2022-10-16T05:57:09;0.80;;;0.50;;
4992;SDS011;2514;53.524;10.166;2022-10-16T05:59:36;2.40;;;1.20;;
4992;SDS011;2514;53.524;10.166;2022-10-16T06:02:03;1.00;;;0.73;;
4992;SDS011;2514;53.524;10.166;2022-10-16T06:04:30;0.80;;;0.60;;
4992;SDS011;2514;53.524;10.166;2022-10-16T06:06:58;0.80;;;0.50;;
4992;SDS011;2514;53.524;10.166;2022-10-16T06:09:27;1.30;;;0.68;;
4992;SDS011;2514;53.524;10.166;2022-10-16T06:11:54;1.92;;;1.25;;
4992;SDS011;2514;53.524;10.166;2022-10-16T06:14:22;14.05;;;1.23;;
4992;SDS011;2514;53.524;10.166;2022-10-16T06:16:49;1.25;;;0.93;;
4992;SDS011;2514;53.524;10.166;2022-10-16T06:19:16;1.17;;;0.68;;
4992;SDS011;2514;53.524;10.166;2022-10-16T06:21:43;1.10;;;0.70;;
4992;SDS011;2514;53.524;10.166;2022-10-16T06:24:11;0.80;;;0.60;;
4992;SDS011;2514;53.524;10.166;2022-10-16T06:26:39;1.40;;;0.50;;
4992;SDS011;2514;53.524;10.166;2022-10-16T06:29:08;0.90;;;0.80;;
4992;SDS011;2514;53.524;10.166;2022-10-16T06:31:35;0.88;;;0.70;;
4992;SDS011;2514;53.524;10.166;2022-10-16T06:34:02;1.50;;;1.38;;
4992;SDS011;2514;53.524;10.166;2022-10-16T06:36:30;1.27;;;1.17;;
4992;SDS011;2514;53.524;10.166;2022-10-16T06:38:57;1.70;;;1.10;;
4992;SDS011;2514;53.524;10.166;2022-10-16T06:41:24;0.90;;;0.70;;
4992;SDS011;2514;53.524;10.166;2022-10-16T06:43:53;1.00;;;0.90;;
4992;SDS011;2514;53.524;10.166;2022-10-16T06:46:21;0.90;;;0.70;;
4992;SDS011;2514;53.524;10.166;2022-10-16T06:48:50;1.00;;;0.80;;
4992;SDS011;2514;53.524;10.166;2022-10-16T06:51:17;2.50;;;1.40;;
4992;SDS011;2514;53.524;10.166;2022-10-16T06:53:47;3.80;;;1.05;;
4992;SDS011;2514;53.524;10.166;2022-10-16T06:56:17;0.90;;;0.70;;
4992;SDS011;2514;53.524;10.166;2022-10-16T06:58:47;1.80;;;1.50;;
4992;SDS011;2514;53.524;10.166;2022-10-16T07:01:19;1.42;;;1.33;;
4992;SDS011;2514;53.524;10.166;2022-10-16T07:03:48;1.85;;;1.20;;
4992;SDS011;2514;53.524;10.166;2022-10-16T07:06:16;2.55;;;1.40;;
4992;SDS011;2514;53.524;10.166;2022-10-16T07:08:45;1.88;;;1.25;;
4992;SDS011;2514;53.524;10.166;2022-10-16T07:11:14;3.20;;;1.70;;
4992;SDS011;2514;53.524;10.166;2022-10-16T07:13:43;2.40;;;1.77;;
4992;SDS011;2514;53.524;10.166;2022-10-16T07:16:13;1.40;;;1.30;;
4992;SDS011;2514;53.524;10.166;2022-10-16T07:18:44;5.90;;;1.60;;
4992;SDS011;2514;53.524;10.166;2022-10-16T07:21:14;1.90;;;0.90;;
4992;SDS011;2514;53.524;10.166;2022-10-16T07:23:44;2.10;;;1.90;;
4992;SDS011;2514;53.524;10.166;2022-10-16T07:26:11;1.30;;;1.20;;
4992;SDS011;2514;53.524;10.166;2022-10-16T07:28:38;1.52;;;0.98;;
4992;SDS011;2514;53.524;10.166;2022-10-16T07:31:06;1.60;;;1.20;;
4992;SDS011;2514;53.524;10.166;2022-10-16T07:33:38;2.10;;;1.60;;
4992;SDS011;2514;53.524;10.166;2022-10-16T07:36:07;1.10;;;1.00;;
4992;SDS011;2514;53.524;10.166;2022-10-16T07:38:34;3.43;;;2.43;;
4992;SDS011;2514;53.524;10.166;2022-10-16T07:41:02;2.23;;;1.40;;
4992;SDS011;2514;53.524;10.166;2022-10-16T07:43:31;1.55;;;1.10;;
4992;SDS011;2514;53.524;10.166;2022-10-16T07:45:59;1.73;;;0.70;;
4992;SDS011;2514;53.524;10.166;2022-10-16T07:48:27;0.93;;;0.85;;
4992;SDS011;2514;53.524;10.166;2022-10-16T07:50:58;1.67;;;1.05;;
4992;SDS011;2514;53.524;10.166;2022-10-16T07:53:25;1.15;;;1.02;;
4992;SDS011;2514;53.524;10.166;2022-10-16T07:55:57;1.30;;;1.20;;
4992;SDS011;2514;53.524;10.166;2022-10-16T07:58:25;1.60;;;0.90;;
4992;SDS011;2514;53.524;10.166;2022-10-16T08:00:52;2.13;;;1.33;;
4992;SDS011;2514;53.524;10.166;2022-10-16T08:03:19;2.30;;;0.80;;
4992;SDS011;2514;53.524;10.166;2022-10-16T08:05:51;2.30;;;0.90;;
4992;SDS011;2514;53.524;10.166;2022-10-16T08:08:20;1.80;;;1.10;;
4992;SDS011;2514;53.524;10.166;2022-10-16T08:10:47;1.00;;;0.80;;
4992;SDS011;2514;53.524;10.166;2022-10-16T08:13:14;4.65;;;1.58;;
4992;SDS011;2514;53.524;10.166;2022-10-16T08:15:42;1.80;;;0.90;;
4992;SDS011;2514;53.524;10.166;2022-10-16T08:18:10;0.90;;;0.70;;
4992;SDS011;2514;53.524;10.166;2022-10-16T08:20:38;4.43;;;1.20;;
4992;SDS011;2514;53.524;10.166;2022-10-16T08:23:06;1.20;;;1.00;;
4992;SDS011;2514;53.524;10.166;2022-10-16T08:25:35;3.77;;;1.10;;
4992;SDS011;2514;53.524;10.166;2022-10-16T08:28:03;1.20;;;1.00;;
4992;SDS011;2514;53.524;10.166;2022-10-16T08:30:31;1.05;;;0.95;;
4992;SDS011;2514;53.524;10.166;2022-10-16T08:32:58;1.97;;;1.07;;
4992;SDS011;2514;53.524;10.166;2022-10-16T08:35:25;6.20;;;1.20;;
4992;SDS011;2514;53.524;10.166;2022-10-16T08:37:52;2.90;;;1.00;;
4992;SDS011;2514;53.524;10.166;2022-10-16T08:40:20;1.60;;;0.80;;
4992;SDS011;2514;53.524;10.166;2022-10-16T08:42:55;2.10;;;0.97;;
4992;SDS011;2514;53.524;10.166;2022-10-16T08:45:55;1.88;;;1.45;;
4992;SDS011;2514;53.524;10.166;2022-10-16T08:48:45;2.10;;;1.13;;
4992;SDS011;2514;53.524;10.166;2022-10-16T08:51:17;2.10;;;0.80;;
4992;SDS011;2514;53.524;10.166;2022-10-16T08:53:49;1.20;;;0.70;;
4992;SDS011;2514;53.524;10.166;2022-10-16T08:56:21;3.42;;;1.17;;
4992;SDS011;2514;53.524;10.166;2022-10-16T08:58:50;2.10;;;1.20;;
4992;SDS011;2514;53.524;10.166;2022-10-16T09:01:19;1.10;;;0.90;;
4992;SDS011;2514;53.524;10.166;2022-10-16T09:03:52;5.13;;;1.63;;
4992;SDS011;2514;53.524;10.166;2022-10-16T09:06:37;1.80;;;0.70;;
4992;SDS011;2514;53.524;10.166;2022-10-16T09:09:21;1.20;;;0.80;;
4992;SDS011;2514;53.524;10.166;2022-10-16T09:12:08;1.10;;;0.97;;
4992;SDS011;2514;53.524;10.166;2022-10-16T09:14:47;1.08;;;0.70;;
4992;SDS011;2514;53.524;10.166;2022-10-16T09:17:34;1.20;;;1.10;;
4992;SDS011;2514;53.524;10.166;2022-10-16T09:20:17;1.00;;;0.60;;
4992;SDS011;2514;53.524;10.166;2022-10-16T09:23:00;1.10;;;0.70;;
4992;SDS011;2514;53.524;10.166;2022-10-16T09:25:41;1.10;;;0.60;;
4992;SDS011;2514;53.524;10.166;2022-10-16T09:28:12;2.78;;;1.08;;
4992;SDS011;2514;53.524;10.166;2022-10-16T09:30:41;1.75;;;1.05;;
4992;SDS011;2514;53.524;10.166;2022-10-16T09:33:09;1.00;;;0.50;;
4992;SDS011;2514;53.524;10.166;2022-10-16T09:35:39;1.10;;;0.60;;
4992;SDS011;2514;53.524;10.166;2022-10-16T09:38:08;2.10;;;1.20;;
4992;SDS011;2514;53.524;10.166;2022-10-16T09:40:48;1.48;;;0.70;;
4992;SDS011;2514;53.524;10.166;2022-10-16T09:43:19;1.10;;;0.80;;
4992;SDS011;2514;53.524;10.166;2022-10-16T09:45:57;2.30;;;0.87;;
4992;SDS011;2514;53.524;10.166;2022-10-16T09:48:27;2.20;;;0.98;;
4992;SDS011;2514;53.524;10.166;2022-10-16T09:51:00;2.70;;;1.00;;
4992;SDS011;2514;53.524;10.166;2022-10-16T09:53:39;2.75;;;1.40;;
4992;SDS011;2514;53.524;10.166;2022-10-16T09:56:09;5.70;;;1.10;;
4992;SDS011;2514;53.524;10.166;2022-10-16T09:58:41;1.40;;;1.10;;
4992;SDS011;2514;53.524;10.166;2022-10-16T10:01:13;1.10;;;0.70;;
4992;SDS011;2514;53.524;10.166;2022-10-16T10:03:42;1.00;;;0.60;;
4992;SDS011;2514;53.524;10.166;2022-10-16T10:06:21;0.90;;;0.50;;
4992;SDS011;2514;53.524;10.166;2022-10-16T10:08:54;2.70;;;1.10;;
4992;SDS011;2514;53.524;10.166;2022-10-16T10:11:37;1.10;;;0.60;;
4992;SDS011;2514;53.524;10.166;2022-10-16T10:14:13;2.90;;;0.80;;
4992;SDS011;2514;53.524;10.166;2022-10-16T10:17:06;1.10;;;0.70;;
4992;SDS011;2514;53.524;10.166;2022-10-16T10:19:39;0.90;;;0.50;;
4992;SDS011;2514;53.524;10.166;2022-10-16T10:22:18;1.50;;;0.60;;
4992;SDS011;2514;53.524;10.166;2022-10-16T10:24:56;1.00;;;0.50;;
4992;SDS011;2514;53.524;10.166;2022-10-16T10:27:42;1.00;;;0.50;;
4992;SDS011;2514;53.524;10.166;2022-10-16T10:30:19;1.00;;;0.50;;
4992;SDS011;2514;53.524;10.166;2022-10-16T10:33:08;4.30;;;0.98;;
4992;SDS011;2514;53.524;10.166;2022-10-16T10:35:47;1.60;;;0.70;;
4992;SDS011;2514;53.524;10.166;2022-10-16T10:38:27;1.00;;;0.45;;
4992;SDS011;2514;53.524;10.166;2022-10-16T10:41:09;1.80;;;1.20;;
4992;SDS011;2514;53.524;10.166;2022-10-16T10:44:01;3.10;;;0.60;;
4992;SDS011;2514;53.524;10.166;2022-10-16T10:46:39;2.40;;;0.80;;
4992;SDS011;2514;53.524;10.166;2022-10-16T10:49:27;1.10;;;0.60;;
4992;SDS011;2514;53.524;10.166;2022-10-16T10:52:13;4.10;;;1.10;;
4992;SDS011;2514;53.524;10.166;2022-10-16T10:55:03;1.00;;;0.60;;
4992;SDS011;2514;53.524;10.166;2022-10-16T10:57:41;1.00;;;0.50;;
4992;SDS011;2514;53.524;10.166;2022-10-16T11:00:23;1.25;;;0.82;;
4992;SDS011;2514;53.524;10.166;2022-10-16T11:02:58;1.00;;;0.60;;
4992;SDS011;2514;53.524;10.166;2022-10-16T11:05:43;1.00;;;0.60;;
4992;SDS011;2514;53.524;10.166;2022-10-16T11:08:14;0.98;;;0.50;;
4992;SDS011;2514;53.524;10.166;2022-10-16T11:10:48;1.30;;;0.70;;
4992;SDS011;2514;53.524;10.166;2022-10-16T11:13:21;1.10;;;0.60;;
4992;SDS011;2514;53.524;10.166;2022-10-16T11:15:57;2.30;;;1.52;;
4992;SDS011;2514;53.524;10.166;2022-10-16T11:18:30;1.00;;;0.40;;
4992;SDS011;2514;53.524;10.166;2022-10-16T11:21:09;1.00;;;0.70;;
4992;SDS011;2514;53.524;10.166;2022-10-16T11:23:40;1.70;;;0.52;;
4992;SDS011;2514;53.524;10.166;2022-10-16T11:26:15;1.80;;;0.90;;
4992;SDS011;2514;53.524;10.166;2022-10-16T11:28:47;6.30;;;0.57;;
4992;SDS011;2514;53.524;10.166;2022-10-16T11:31:17;1.20;;;0.80;;
4992;SDS011;2514;53.524;10.166;2022-10-16T11:33:51;2.20;;;1.10;;
4992;SDS011;2514;53.524;10.166;2022-10-16T11:36:30;2.03;;;0.90;;
4992;SDS011;2514;53.524;10.166;2022-10-16T11:39:04;1.00;;;0.60;;
4992;SDS011;2514;53.524;10.166;2022-10-16T11:41:47;1.90;;;0.73;;
4992;SDS011;2514;53.524;10.166;2022-10-16T11:47:23;1.27;;;0.70;;
4992;SDS011;2514;53.524;10.166;2022-10-16T11:49:59;2.47;;;1.17;;
4992;SDS011;2514;53.524;10.166;2022-10-16T11:52:33;1.20;;;0.50;;
4992;SDS011;2514;53.524;10.166;2022-10-16T11:55:12;0.90;;;0.47;;
4992;SDS011;2514;53.524;10.166;2022-10-16T11:57:44;1.60;;;0.60;;
4992;SDS011;2514;53.524;10.166;2022-10-16T12:00:19;0.90;;;0.50;;
4992;SDS011;2514;53.524;10.166;2022-10-16T12:02:52;1.70;;;0.52;;
4992;SDS011;2514;53.524;10.166;2022-10-16T12:05:28;1.00;;;0.52;;
4992;SDS011;2514;53.524;10.166;2022-10-16T12:08:06;2.22;;;0.80;;
4992;SDS011;2514;53.524;10.166;2022-10-16T12:10:37;0.90;;;0.50;;
4992;SDS011;2514;53.524;10.166;2022-10-16T12:16:04;2.40;;;1.00;;
4992;SDS011;2514;53.524;10.166;2022-10-16T12:18:47;0.90;;;0.50;;
4992;SDS011;2514;53.524;10.166;2022-10-16T12:21:16;1.30;;;0.50;;
4992;SDS011;2514;53.524;10.166;2022-10-16T12:23:49;2.10;;;0.60;;
4992;SDS011;2514;53.524;10.166;2022-10-16T12:26:24;1.45;;;1.20;;
4992;SDS011;2514;53.524;10.166;2022-10-16T12:28:52;3.45;;;0.90;;
4992;SDS011;2514;53.524;10.166;2022-10-16T12:31:19;1.30;;;0.70;;
4992;SDS011;2514;53.524;10.166;2022-10-16T12:33:56;2.60;;;1.30;;
4992;SDS011;2514;53.524;10.166;2022-10-16T12:36:27;2.00;;;1.10;;
4992;SDS011;2514;53.524;10.166;2022-10-16T12:38:57;1.00;;;0.50;;
4992;SDS011;2514;53.524;10.166;2022-10-16T12:41:26;1.00;;;0.60;;
4992;SDS011;2514;53.524;10.166;2022-10-16T12:43:55;1.80;;;0.80;;
4992;SDS011;2514;53.524;10.166;2022-10-16T12:46:24;1.10;;;0.50;;
4992;SDS011;2514;53.524;10.166;2022-10-16T12:49:05;2.50;;;0.57;;
4992;SDS011;2514;53.524;10.166;2022-10-16T12:51:49;0.90;;;0.50;;
4992;SDS011;2514;53.524;10.166;2022-10-16T12:54:18;1.40;;;0.70;;
4992;SDS011;2514;53.524;10.166;2022-10-16T12:56:51;2.30;;;0.90;;
4992;SDS011;2514;53.524;10.166;2022-10-16T12:59:37;1.00;;;0.47;;
4992;SDS011;2514;53.524;10.166;2022-10-16T13:02:21;0.90;;;0.40;;
4992;SDS011;2514;53.524;10.166;2022-10-16T13:05:19;1.90;;;1.02;;
4992;SDS011;2514;53.524;10.166;2022-10-16T13:07:59;0.90;;;0.50;;
4992;SDS011;2514;53.524;10.166;2022-10-16T13:10:55;0.90;;;0.50;;
4992;SDS011;2514;53.524;10.166;2022-10-16T13:13:49;1.00;;;0.50;;
4992;SDS011;2514;53.524;10.166;2022-10-16T13:16:49;5.95;;;0.77;;
4992;SDS011;2514;53.524;10.166;2022-10-16T13:19:28;0.90;;;0.50;;
4992;SDS011;2514;53.524;10.166;2022-10-16T13:22:01;1.10;;;0.90;;
4992;SDS011;2514;53.524;10.166;2022-10-16T13:24:43;0.90;;;0.50;;
4992;SDS011;2514;53.524;10.166;2022-10-16T13:27:26;0.90;;;0.50;;
4992;SDS011;2514;53.524;10.166;2022-10-16T13:30:08;2.10;;;0.50;;
4992;SDS011;2514;53.524;10.166;2022-10-16T13:32:40;6.20;;;0.77;;
4992;SDS011;2514;53.524;10.166;2022-10-16T13:35:18;1.30;;;1.10;;
4992;SDS011;2514;53.524;10.166;2022-10-16T13:37:48;0.90;;;0.50;;
4992;SDS011;2514;53.524;10.166;2022-10-16T13:40:19;0.90;;;0.40;;
4992;SDS011;2514;53.524;10.166;2022-10-16T13:42:50;0.90;;;0.40;;
4992;SDS011;2514;53.524;10.166;2022-10-16T13:45:19;0.90;;;0.50;;
4992;SDS011;2514;53.524;10.166;2022-10-16T13:47:48;1.00;;;0.60;;
4992;SDS011;2514;53.524;10.166;2022-10-16T13:50:16;0.90;;;0.55;;
4992;SDS011;2514;53.524;10.166;2022-10-16T13:52:44;0.90;;;0.50;;
4992;SDS011;2514;53.524;10.166;2022-10-16T13:55:12;1.20;;;0.60;;
4992;SDS011;2514;53.524;10.166;2022-10-16T13:57:40;1.13;;;0.73;;
4992;SDS011;2514;53.524;10.166;2022-10-16T14:00:19;0.90;;;0.40;;
4992;SDS011;2514;53.524;10.166;2022-10-16T14:02:53;0.90;;;0.40;;
4992;SDS011;2514;53.524;10.166;2022-10-16T14:05:25;0.90;;;0.40;;
4992;SDS011;2514;53.524;10.166;2022-10-16T14:07:52;0.90;;;0.40;;
4992;SDS011;2514;53.524;10.166;2022-10-16T14:10:22;0.90;;;0.60;;
4992;SDS011;2514;53.524;10.166;2022-10-16T14:12:55;0.90;;;0.50;;
4992;SDS011;2514;53.524;10.166;2022-10-16T14:15:26;2.50;;;0.50;;
4992;SDS011;2514;53.524;10.166;2022-10-16T14:17:55;3.20;;;1.10;;
4992;SDS011;2514;53.524;10.166;2022-10-16T14:20:26;0.90;;;0.57;;
4992;SDS011;2514;53.524;10.166;2022-10-16T14:23:00;1.10;;;0.70;;
4992;SDS011;2514;53.524;10.166;2022-10-16T14:25:30;0.90;;;0.50;;
4992;SDS011;2514;53.524;10.166;2022-10-16T14:28:03;0.90;;;0.50;;
4992;SDS011;2514;53.524;10.166;2022-10-16T14:30:50;0.90;;;0.40;;
4992;SDS011;2514;53.524;10.166;2022-10-16T14:33:20;1.20;;;1.10;;
4992;SDS011;2514;53.524;10.166;2022-10-16T14:35:59;1.00;;;0.60;;
4992;SDS011;2514;53.524;10.166;2022-10-16T14:38:30;0.90;;;0.50;;
4992;SDS011;2514;53.524;10.166;2022-10-16T14:40:58;1.20;;;0.60;;
4992;SDS011;2514;53.524;10.166;2022-10-16T14:43:28;0.90;;;0.50;;
4992;SDS011;2514;53.524;10.166;2022-10-16T14:46:02;1.15;;;0.52;;
4992;SDS011;2514;53.524;10.166;2022-10-16T14:48:32;0.90;;;0.50;;
4992;SDS011;2514;53.524;10.166;2022-10-16T14:50:59;0.90;;;0.40;;
4992;SDS011;2514;53.524;10.166;2022-10-16T14:53:26;1.00;;;0.70;;
4992;SDS011;2514;53.524;10.166;2022-10-16T14:55:53;0.90;;;0.40;;
4992;SDS011;2514;53.524;10.166;2022-10-16T14:58:21;1.00;;;0.60;;
4992;SDS011;2514;53.524;10.166;2022-10-16T15:00:50;1.50;;;0.60;;
4992;SDS011;2514;53.524;10.166;2022-10-16T15:03:18;1.70;;;0.50;;
4992;SDS011;2514;53.524;10.166;2022-10-16T15:05:45;0.90;;;0.40;;
4992;SDS011;2514;53.524;10.166;2022-10-16T15:08:12;1.20;;;0.70;;
4992;SDS011;2514;53.524;10.166;2022-10-16T15:10:40;0.90;;;0.43;;
4992;SDS011;2514;53.524;10.166;2022-10-16T15:13:11;1.00;;;0.52;;
4992;SDS011;2514;53.524;10.166;2022-10-16T15:15:40;0.90;;;0.50;;
4992;SDS011;2514;53.524;10.166;2022-10-16T15:18:09;1.00;;;0.80;;
4992;SDS011;2514;53.524;10.166;2022-10-16T15:20:38;0.90;;;0.40;;
4992;SDS011;2514;53.524;10.166;2022-10-16T15:23:06;3.20;;;0.70;;
4992;SDS011;2514;53.524;10.166;2022-10-16T15:25:41;0.90;;;0.60;;
4992;SDS011;2514;53.524;10.166;2022-10-16T15:28:10;0.90;;;0.55;;
4992;SDS011;2514;53.524;10.166;2022-10-16T15:30:39;0.90;;;0.40;;
4992;SDS011;2514;53.524;10.166;2022-10-16T15:33:10;0.90;;;0.50;;